Terminal Aerodrome Forecast
Issued by NWS

Home | Current Version | Previous Version | Graphics & Text | Print | Product List | Glossary On
Versions: 1 2 3 4 5 6 7 8 9 10 11 12 13 14 15 16 17
776
FTUS41 KCLE 221123
TAFFDY
TAF
KFDY 221123Z 2212/2312 24007KT P6SM VCSH SCT020 BKN120
      TEMPO 2212/2215 BKN020
     FM221600 25011KT 6SM HZ VCSH BKN040
     FM230100 24005KT P6SM SCT045
     FM230700 01002KT 4SM BR SCT010=

USA.gov is the U.S. government's official web portal to all federal, state and local government web resources and services.